• Join FlightAware (Why Join?)
  • Login
  • US Flag 
07:55AM EST


 

Airport Tracker/Info


-or-


 

Live Flight TrackerFlight Track Log ✈ N860BA ✈ 24-Aug-2013 ✈ KFOK - KGUC

Flight Track Log - Related Links

Times and Time Zones

All times are in EDT time to prevent confusion due to time zone crossing. See the N860BA flight status page for this flight to view local times or setup timezone preferences in your user account.

Time Position Orientation Groundspeed Altitude Reporting Facility
EDT Latitude Longitude Course Direction KTS MPH feet Rate Location/Type
11:38AM 40.8667 -72.6000 49° Northeast 161 185 700  Level New York TRACON
11:39AM 40.9000 -72.5500 49° Northeast 222 255 3,200 2,100 Climbing New York TRACON
11:40AM 40.9500 -72.6167 315° West 295 339 5,000 1,140 Climbing New York TRACON
11:41AM 40.9167 -72.7000 242° Southwest 325 374 5,400 1,560 Climbing New York TRACON
11:42AM 40.8667 -72.8000 237° Southwest 326 375 8,000 1,260 Climbing New York TRACON
11:43AM 40.8500 -72.9333 261° West 317 365 8,100  Climbing New York TRACON
11:44AM 40.8333 -73.0333 258° West 298 343 8,100 540 Level New York TRACON
11:45AM 40.8167 -73.1500 259° West 316 364 9,200 960 Climbing New York TRACON
11:46AM 40.8333 -73.2833 279° West 359 413 10,200 1,980 Climbing New York TRACON
11:47AM 40.8833 -73.3833 304° West 365 420 13,200 3,000 Climbing New York TRACON
11:48AM 40.9500 -73.5000 307° West 348 400 16,200 1,380 Climbing New York TRACON
11:50AM 40.9814 -73.7122 281° West 387 445 17,000 300 Climbing New York Center
11:51AM 41.0083 -73.8756 282° West 410 472 17,000  Level New York Center
11:52AM 41.0275 -74.0111 281° West 416 479 17,000 240 Level New York Center
11:53AM 41.0564 -74.1750 283° West 416 479 17,500 600 Climbing New York Center
11:54AM 41.0792 -74.3164 282° West 430 495 18,200 1,200 Climbing New York Center
11:55AM 41.1036 -74.4719 282° West 437 503 20,000 1,800 Climbing New York Center
11:56AM 41.1258 -74.6244 281° West 431 496 21,900 1,920 Climbing New York Center
11:57AM 41.1647 -74.7672 290° West 425 489 23,900 1,920 Climbing New York Center
11:58AM 41.2228 -74.8950 301° West 412 474 25,800 1,680 Climbing New York Center
11:59AM 41.2825 -75.0367 299° West 407 468 27,300 1,140 Climbing New York Center
12:00PM 41.3381 -75.1672 300° West 407 468 28,100 720 Climbing New York Center
12:01PM 41.3975 -75.3011 301° West 412 474 28,800 660 Climbing New York Center
12:02PM 41.4225 -75.4606 282° West 425 489 29,500 660 Climbing New York Center
12:03PM 41.4411 -75.6222 279° West 431 496 30,200 660 Climbing New York Center
12:04PM 41.4589 -75.7925 278° West 451 519 30,900 660 Climbing New York Center
12:05PM 41.4792 -75.9544 280° West 451 519 31,600 600 Climbing New York Center
12:06PM 41.4992 -76.1111 280° West 445 512 32,200 600 Climbing New York Center
12:07PM 41.5208 -76.2764 280° West 445 512 32,800 600 Climbing New York Center
12:08PM 41.5347 -76.4244 277° West 455 524 33,500 660 Climbing New York Center
12:09PM 41.5519 -76.5867 278° West 450 518 34,200 660 Climbing New York Center
12:10PM 41.5683 -76.7600 277° West 445 512 34,900 540 Climbing New York Center
12:12PM 41.6044 -77.0842 279° West 434 499 36,000 480 Climbing Cleveland Center
12:13PM 41.6217 -77.2400 278° West 434 499 36,400 420 Climbing Cleveland Center
12:14PM 41.6375 -77.3992 278° West 432 497 36,900 420 Climbing Cleveland Center
12:15PM 41.6542 -77.5603 278° West 438 504 37,300 480 Climbing Cleveland Center
12:16PM 41.6725 -77.7478 278° West 430 495 37,900 300 Climbing Cleveland Center
12:17PM 41.6875 -77.9036 277° West 427 491 38,000  Climbing Cleveland Center
12:18PM 41.7022 -78.0606 277° West 431 496 38,000  Level Cleveland Center
12:19PM 41.7178 -78.2178 278° West 432 497 38,000  Level Cleveland Center
12:20PM 41.7328 -78.3758 277° West 434 499 38,000  Level Cleveland Center
12:21PM 41.7497 -78.5658 277° West 434 499 38,000  Level Cleveland Center
12:22PM 41.7636 -78.7244 277° West 435 501 38,000  Level Cleveland Center
12:23PM 41.7786 -78.8831 277° West 435 501 38,000  Level Cleveland Center
12:24PM 41.7950 -79.0647 277° West 443 510 38,000  Level Cleveland Center
12:25PM 41.8092 -79.2264 277° West 439 505 38,000  Level Cleveland Center
12:26PM 41.8236 -79.3975 277° West 438 504 38,000  Level Cleveland Center
12:27PM 41.8361 -79.5597 276° West 440 506 38,000  Level Cleveland Center
12:28PM 41.8492 -79.7308 276° West 447 514 38,000  Level Cleveland Center
12:29PM 41.8633 -79.8950 277° West 441 507 38,000  Level Cleveland Center
12:31PM 41.8756 -80.0600 276° West 441 507 38,000  Level Cleveland Center
12:32PM 41.8883 -80.2242 276° West 440 506 38,000  Level Cleveland Center
12:33PM 41.9006 -80.3886 276° West 441 507 38,000  Level Cleveland Center
12:34PM 41.9156 -80.5831 276° West 444 511 38,000  Level Cleveland Center
12:35PM 41.9272 -80.7472 276° West 441 507 38,000  Level Cleveland Center
12:36PM 41.9394 -80.9139 276° West 445 512 38,000  Level Cleveland Center
12:37PM 41.9506 -81.0789 275° West 442 509 38,000  Level Cleveland Center
12:38PM 41.9628 -81.2439 276° West 442 509 38,000  Level Cleveland Center
12:39PM 41.9733 -81.4089 275° West 442 509 38,100 180 Climbing Cleveland Center
12:40PM 41.9842 -81.5731 275° West 440 506 38,400 240 Climbing Cleveland Center
12:41PM 41.9969 -81.7642 275° West 440 506 38,700 240 Climbing Cleveland Center
12:42PM 42.0064 -81.9264 275° West 435 501 39,000 240 Climbing Cleveland Center
12:43PM 42.0167 -82.0883 275° West 434 499 39,300 240 Climbing Cleveland Center
12:44PM 42.0264 -82.2444 275° West 432 497 39,600 240 Climbing Cleveland Center
12:45PM 42.0353 -82.4056 274° West 432 497 39,800 180 Climbing Cleveland Center
12:46PM 42.0442 -82.5653 274° West 432 497 40,000 60 Climbing Cleveland Center
12:47PM 42.0547 -82.7594 274° West 434 499 40,000  Level Cleveland Center
12:48PM 42.0642 -82.9208 275° West 434 499 40,000  Level Cleveland Center
12:49PM 42.0717 -83.0811 274° West 431 496 40,000  Level Cleveland Center
12:50PM 42.0800 -83.2494 274° West 433 498 40,000  Level Cleveland Center
12:51PM 42.0872 -83.4114 273° West 431 496 40,000  Level Cleveland Center
12:52PM 42.0956 -83.5714 274° West 435 501 40,000  Level Cleveland Center
12:53PM 42.1039 -83.7339 274° West 431 496 40,100  Climbing Cleveland Center
12:54PM 42.1111 -83.8947 274° West 428 493 40,000 -60 Descending Cleveland Center
12:55PM 42.1200 -84.0883 274° West 429 494 40,000  Level Cleveland Center
12:56PM 42.1261 -84.2497 273° West 433 498 40,000  Level Cleveland Center
12:57PM 42.1339 -84.3931 274° West 433 498 40,000  Level Cleveland Center
12:58PM 42.1397 -84.5728 273° West 432 497 40,000  Level Cleveland Center
12:59PM 42.1478 -84.7472 274° West 435 501 40,000  Level Cleveland Center
01:00PM 42.1544 -84.9089 273° West 437 503 40,000  Level Cleveland Center
01:02PM 42.1603 -85.0703 273° West 437 503 40,000  Level Cleveland Center
01:03PM 42.1658 -85.2319 273° West 436 502 40,000  Level Cleveland Center
01:04PM 42.1719 -85.4272 272° West 442 509 40,000  Level Cleveland Center
01:05PM 42.1761 -85.5894 272° West 439 505 40,000  Level Cleveland Center
01:06PM 42.1806 -85.7533 272° West 442 509 40,000  Level Cleveland Center
01:07PM 42.1850 -85.9186 272° West 443 510 40,000  Level Cleveland Center
01:08PM 42.1892 -86.1053 272° West 445 512 40,000  Level Cleveland Center
01:09PM 42.1931 -86.2722 272° West 445 512 40,000  Level Cleveland Center
01:10PM 42.1969 -86.5175 271° West 449 517 40,000  Level Chicago Center
01:11PM 42.2017 -86.6889 272° West 449 517 40,000  Level Chicago Center
01:12PM 42.2064 -86.8567 272° West 455 524 40,000  Level Chicago Center
01:13PM 42.2097 -87.0256 272° West 456 525 40,000  Level Chicago Center
01:14PM 42.2108 -87.2236 271° West 447 514 40,000  Level Chicago Center
01:15PM 42.2142 -87.3914 272° West 452 520 40,000  Level Chicago Center
01:16PM 42.2161 -87.5597 271° West 453 521 40,000  Level Chicago Center
01:17PM 42.2175 -87.7269 271° West 451 519 40,000  Level Chicago Center
01:18PM 42.2194 -87.8950 271° West 453 521 40,000  Level Chicago Center
01:20PM 42.1950 -88.0942 261° West 463 533 40,000  Level Chicago Center
01:21PM 42.1656 -88.2631 257° West 469 540 40,000  Level Chicago Center
01:22PM 42.1358 -88.4336 257° West 473 544 40,000  Level Chicago Center
01:23PM 42.1058 -88.6003 256° West 465 535 40,000  Level Chicago Center
01:24PM 42.0756 -88.7678 256° West 464 534 40,000  Level Chicago Center
01:25PM 42.0386 -88.9686 256° West 466 536 40,000  Level Chicago Center
01:26PM 42.0081 -89.1367 256° West 467 537 40,000  Level Chicago Center
01:27PM 41.9772 -89.3044 256° West 467 537 40,000  Level Chicago Center
01:28PM 41.9450 -89.4717 256° West 466 536 40,000  Level Chicago Center
01:29PM 41.9142 -89.6381 256° West 464 534 40,000  Level Chicago Center
01:30PM 41.8744 -89.8397 255° West 468 539 40,000  Level Chicago Center
01:31PM 41.8481 -89.9875 257° West 465 535 40,000  Level Chicago Center
01:32PM 41.8089 -90.1878 255° West 466 536 40,000  Level Chicago Center
01:33PM 41.7733 -90.3633 255° West 478 550 40,000  Level Chicago Center
01:34PM 41.7403 -90.5297 255° West 468 539 40,000  Level Chicago Center
01:35PM 41.7083 -90.6911 255° West 464 534 40,000  Level Chicago Center
01:36PM 41.6744 -90.8578 255° West 466 536 40,000  Level Chicago Center
01:37PM 41.6397 -91.0258 255° West 469 540 40,000  Level Chicago Center
01:38PM 41.5989 -91.2250 255° West 467 537 40,000  Level Chicago Center
01:39PM 41.5650 -91.3900 255° West 464 534 40,000  Level Chicago Center
01:40PM 41.5308 -91.5567 255° West 466 536 40,000  Level Chicago Center
01:41PM 41.5150 -91.7217 263° West 456 525 40,000  Level Chicago Center
01:42PM 41.5106 -91.8878 268° West 452 520 40,000  Level Chicago Center
01:43PM 41.5025 -92.0869 267° West 451 519 40,000  Level Chicago Center
01:44PM 41.4972 -92.2508 268° West 445 512 40,000  Level Chicago Center
01:45PM 41.4744 -92.4203 260° West 446 513 40,000  Level Chicago Center
01:46PM 41.4461 -92.5825 257° West 453 521 40,000  Level Chicago Center
01:47PM 41.4181 -92.7447 257° West 454 522 40,000  Level Chicago Center
01:48PM 41.3908 -92.9083 258° West 456 525 40,000  Level Minneapolis Center
01:49PM 41.3767 -93.0711 263° West 451 519 40,000  Level Minneapolis Center
01:50PM 41.3625 -93.2347 263° West 450 518 40,000  Level Minneapolis Center
01:51PM 41.3497 -93.3672 263° West 453 521 40,000  Level Minneapolis Center
01:52PM 41.3289 -93.5931 263° West 446 513 40,000  Level Minneapolis Center
01:53PM 41.3142 -93.7567 263° West 448 516 40,000  Level Minneapolis Center
01:55PM 41.2969 -93.9214 262° West 453 521 40,000  Level Minneapolis Center
01:56PM 41.2806 -94.0844 262° West 451 519 40,000  Level Minneapolis Center
01:57PM 41.2608 -94.2725 262° West 451 519 40,000  Level Minneapolis Center
01:58PM 41.2431 -94.4378 262° West 452 520 40,000  Level Minneapolis Center
01:59PM 41.2269 -94.6014 263° West 449 517 40,000  Level Minneapolis Center
02:00PM 41.2083 -94.7661 262° West 449 517 40,000  Level Minneapolis Center
02:01PM 41.1850 -94.9617 261° West 448 516 40,000  Level Minneapolis Center
02:02PM 41.1669 -95.1244 262° West 446 513 40,000  Level Minneapolis Center
02:03PM 41.1442 -95.3214 261° West 450 518 40,000  Level Minneapolis Center
02:04PM 41.1256 -95.4869 262° West 452 520 40,000  Level Minneapolis Center
02:05PM 41.1053 -95.6511 261° West 451 519 40,000  Level Minneapolis Center
02:06PM 41.0847 -95.8144 261° West 447 514 40,000  Level Minneapolis Center
02:07PM 41.0642 -95.9814 261° West 451 519 40,000  Level Minneapolis Center
02:08PM 41.0456 -96.1475 262° West 451 519 40,000  Level Minneapolis Center
02:09PM 41.0264 -96.3125 261° West 451 519 40,000  Level Minneapolis Center
02:10PM 41.0017 -96.5103 261° West 451 519 40,000  Level Minneapolis Center
02:11PM 40.9817 -96.6747 261° West 452 520 40,000  Level Minneapolis Center
02:12PM 40.9589 -96.8400 260° West 455 524 40,000  Level Minneapolis Center
02:13PM 40.9389 -97.0058 261° West 456 525 40,000  Level Minneapolis Center
02:15PM 40.9181 -97.1717 261° West 457 526 40,000  Level Minneapolis Center
02:16PM 40.8886 -97.3950 260° West 460 529 40,000  Level Minneapolis Center
02:17PM 40.8669 -97.5606 260° West 458 527 40,000  Level Minneapolis Center
02:18PM 40.8439 -97.7256 260° West 457 526 40,000  Level Minneapolis Center
02:19PM 40.8219 -97.8919 260° West 457 526 40,000  Level Minneapolis Center
02:20PM 40.7983 -98.0572 259° West 458 527 40,000  Level Minneapolis Center
02:21PM 40.7753 -98.2217 260° West 456 525 40,000  Level Minneapolis Center
02:22PM 40.7522 -98.3869 260° West 455 524 40,000  Level Minneapolis Center
02:23PM 40.7239 -98.5858 259° West 455 524 40,000  Level Minneapolis Center
02:24PM 40.7008 -98.7522 260° West 456 525 40,000  Level Minneapolis Center
02:25PM 40.6808 -98.8850 259° West 458 527 40,000  Level Minneapolis Center
02:26PM 40.6525 -99.0836 259° West 458 527 40,000  Level Minneapolis Center
02:27PM 40.6286 -99.2469 259° West 455 524 40,000  Level Minneapolis Center
02:28PM 40.6050 -99.4089 259° West 453 521 40,000  Level Minneapolis Center
02:29PM 40.5806 -99.5714 259° West 451 519 40,000  Level Minneapolis Center
02:30PM 40.5561 -99.7317 259° West 448 516 40,000  Level Minneapolis Center
02:31PM 40.5261 -99.9239 258° West 447 514 40,000  Level Minneapolis Center
02:32PM 40.5003 -100.0839 258° West 446 513 40,000  Level Minneapolis Center
02:33PM 40.4764 -100.2450 259° West 448 516 40,000  Level Minneapolis Center
02:34PM 40.4514 -100.4056 258° West 448 516 40,000  Level Minneapolis Center
02:35PM 40.4317 -100.5325 259° West 447 514 40,000  Level Minneapolis Center
02:36PM 40.3953 -100.7372 257° West 438 504 40,000  Level Denver Center
02:37PM 40.3703 -100.8872 258° West 437 503 40,000  Level Denver Center
02:38PM 40.3417 -101.0611 258° West 436 502 40,000  Level Denver Center
02:39PM 40.3172 -101.2108 258° West 436 502 40,000  Level Denver Center
02:40PM 40.2867 -101.3842 257° West 436 502 40,000  Level Denver Center
02:41PM 40.2625 -101.5331 258° West 435 501 40,000  Level Denver Center
02:43PM 40.2314 -101.7064 257° West 438 504 40,000  Level Denver Center
02:44PM 40.2058 -101.8561 257° West 439 505 40,000  Level Denver Center
02:45PM 40.1806 -102.0072 258° West 442 509 40,000  Level Denver Center
02:46PM 40.1497 -102.1803 257° West 439 505 40,000  Level Denver Center
02:47PM 40.1225 -102.3283 257° West 438 504 40,000  Level Denver Center
02:48PM 40.0917 -102.5000 257° West 436 502 40,000  Level Denver Center
02:49PM 40.0636 -102.6475 256° West 437 503 40,000  Level Denver Center
02:50PM 40.0369 -102.8069 258° West 437 503 40,000  Level Denver Center
02:51PM 40.0083 -102.9583 256° West 434 499 40,000  Level Denver Center
02:52PM 39.9742 -103.1433 257° West 436 502 40,000  Level Denver Center
02:53PM 39.9403 -103.3264 256° West 436 502 40,000  Level Denver Center
02:54PM 39.9106 -103.4789 256° West 434 499 40,000  Level Denver Center
02:55PM 39.8822 -103.6325 257° West 437 503 40,000  Level Denver Center
02:56PM 39.8547 -103.7883 257° West 444 511 40,000  Level Denver Center
02:57PM 39.8189 -103.9681 256° West 432 497 40,000  Level Denver Center
02:58PM 39.7894 -104.1178 256° West 428 493 40,000  Level Denver Center
03:00PM 39.7481 -104.3286 256° West 435 501 40,000  Level Denver Center
03:01PM 39.7186 -104.4775 256° West 429 494 40,000  Level Denver Center
03:02PM 39.6967 -104.5944 256° West 425 489 40,000  Level Denver Center
03:03PM 39.6289 -104.7414 239° Southwest 434 499 40,000  Level Denver Center
03:04PM 39.5497 -104.9056 238° Southwest 427 491 40,000  Level Denver Center
03:05PM 39.4853 -105.0336 237° Southwest 428 493 40,000 -60 Level Denver Center
03:06PM 39.4219 -105.1600 237° Southwest 424 488 39,900 -600 Descending Denver Center
03:07PM 39.3728 -105.2572 237° Southwest 413 475 38,800 -1,560 Descending Denver Center
03:08PM 39.2975 -105.4053 237° Southwest 411 473 36,500 -1,860 Descending Denver Center
03:09PM 39.2217 -105.5575 237° Southwest 417 480 34,300 -2,160 Descending Denver Center
03:10PM 39.1342 -105.7294 237° Southwest 410 472 31,700 -2,220 Descending Denver Center
03:11PM 39.0719 -105.8506 237° Southwest 406 467 29,800 -1,800 Descending Denver Center
03:12PM 39.0158 -105.9764 240° Southwest 408 470 28,000 -1,800 Descending Denver Center
03:13PM 38.9725 -106.1100 247° West 408 470 26,100 -1,980 Descending Denver Center
03:14PM 38.9242 -106.2522 246° West 401 461 24,000 -1,860 Descending Denver Center
03:16PM 38.8783 -106.3872 246° West 394 453 22,000 -1,800 Descending Denver Center
03:17PM 38.8306 -106.5194 245° Southwest 396 456 20,000 -2,100 Descending Denver Center
03:18PM 38.7572 -106.6469 234° Southwest 373 429 17,700 -1,860 Descending Denver Center
03:19PM 38.6972 -106.7469 232° Southwest 363 418 16,200 -1,200 Descending Denver Center
03:20PM 38.6428 -106.8328 231° Southwest 328 377 15,300 -900 Descending Denver Center